sensor_id;sensor_type;location;lat;lon;timestamp;P1;durP1;ratioP1;P2;durP2;ratioP2
15061;SDS011;7630;50.306;8.566;2022-11-21T00:01:23;7.10;;;2.00;;
15061;SDS011;7630;50.306;8.566;2022-11-21T00:05:30;7.27;;;2.80;;
15061;SDS011;7630;50.306;8.566;2022-11-21T00:09:29;4.40;;;2.50;;
15061;SDS011;7630;50.306;8.566;2022-11-21T00:13:32;10.47;;;3.10;;
15061;SDS011;7630;50.306;8.566;2022-11-21T00:17:33;3.70;;;2.37;;
15061;SDS011;7630;50.306;8.566;2022-11-21T00:21:34;8.47;;;2.80;;
15061;SDS011;7630;50.306;8.566;2022-11-21T00:25:36;11.10;;;2.87;;
15061;SDS011;7630;50.306;8.566;2022-11-21T00:29:38;5.63;;;2.47;;
15061;SDS011;7630;50.306;8.566;2022-11-21T00:33:39;10.13;;;3.30;;
15061;SDS011;7630;50.306;8.566;2022-11-21T00:37:40;9.50;;;4.63;;
15061;SDS011;7630;50.306;8.566;2022-11-21T00:41:41;7.13;;;2.93;;
15061;SDS011;7630;50.306;8.566;2022-11-21T00:45:42;6.63;;;2.60;;
15061;SDS011;7630;50.306;8.566;2022-11-21T00:49:44;3.37;;;2.30;;
15061;SDS011;7630;50.306;8.566;2022-11-21T00:53:45;7.53;;;3.17;;
15061;SDS011;7630;50.306;8.566;2022-11-21T00:57:46;7.70;;;2.80;;
15061;SDS011;7630;50.306;8.566;2022-11-21T01:01:47;7.63;;;2.73;;
15061;SDS011;7630;50.306;8.566;2022-11-21T01:05:48;5.63;;;1.97;;
15061;SDS011;7630;50.306;8.566;2022-11-21T01:09:49;6.20;;;3.07;;
15061;SDS011;7630;50.306;8.566;2022-11-21T01:13:51;8.37;;;2.97;;
15061;SDS011;7630;50.306;8.566;2022-11-21T01:17:54;6.73;;;3.00;;
15061;SDS011;7630;50.306;8.566;2022-11-21T01:21:55;7.57;;;3.27;;
15061;SDS011;7630;50.306;8.566;2022-11-21T01:26:00;8.80;;;3.27;;
15061;SDS011;7630;50.306;8.566;2022-11-21T01:30:03;5.93;;;3.43;;
15061;SDS011;7630;50.306;8.566;2022-11-21T01:34:04;7.37;;;3.40;;
15061;SDS011;7630;50.306;8.566;2022-11-21T01:38:05;12.27;;;3.30;;
15061;SDS011;7630;50.306;8.566;2022-11-21T01:42:07;7.70;;;3.37;;
15061;SDS011;7630;50.306;8.566;2022-11-21T01:46:12;7.53;;;3.43;;
15061;SDS011;7630;50.306;8.566;2022-11-21T01:50:15;7.33;;;3.03;;
15061;SDS011;7630;50.306;8.566;2022-11-21T01:58:36;14.80;;;3.90;;
15061;SDS011;7630;50.306;8.566;2022-11-21T02:02:42;10.07;;;3.80;;
15061;SDS011;7630;50.306;8.566;2022-11-21T02:06:46;15.90;;;4.87;;
15061;SDS011;7630;50.306;8.566;2022-11-21T02:11:31;10.80;;;4.30;;
15061;SDS011;7630;50.306;8.566;2022-11-21T02:14:58;15.97;;;4.47;;
15061;SDS011;7630;50.306;8.566;2022-11-21T02:19:00;14.10;;;5.43;;
15061;SDS011;7630;50.306;8.566;2022-11-21T02:27:23;9.80;;;4.77;;
15061;SDS011;7630;50.306;8.566;2022-11-21T02:31:24;15.50;;;4.07;;
15061;SDS011;7630;50.306;8.566;2022-11-21T02:35:25;11.23;;;4.77;;
15061;SDS011;7630;50.306;8.566;2022-11-21T02:39:28;8.80;;;4.17;;
15061;SDS011;7630;50.306;8.566;2022-11-21T02:43:38;15.33;;;3.90;;
15061;SDS011;7630;50.306;8.566;2022-11-21T02:47:49;10.07;;;3.70;;
15061;SDS011;7630;50.306;8.566;2022-11-21T02:51:52;10.70;;;4.37;;
15061;SDS011;7630;50.306;8.566;2022-11-21T02:55:54;16.00;;;5.50;;
15061;SDS011;7630;50.306;8.566;2022-11-21T02:59:55;11.47;;;4.47;;
15061;SDS011;7630;50.306;8.566;2022-11-21T03:03:57;8.63;;;4.10;;
15061;SDS011;7630;50.306;8.566;2022-11-21T03:07:59;12.83;;;5.17;;
15061;SDS011;7630;50.306;8.566;2022-11-21T03:12:04;8.63;;;4.57;;
15061;SDS011;7630;50.306;8.566;2022-11-21T03:16:09;12.43;;;4.43;;
15061;SDS011;7630;50.306;8.566;2022-11-21T03:20:10;13.63;;;5.30;;
15061;SDS011;7630;50.306;8.566;2022-11-21T03:24:11;18.07;;;5.30;;
15061;SDS011;7630;50.306;8.566;2022-11-21T03:28:12;11.63;;;4.47;;
15061;SDS011;7630;50.306;8.566;2022-11-21T03:32:14;15.60;;;4.90;;
15061;SDS011;7630;50.306;8.566;2022-11-21T03:36:15;21.07;;;5.90;;
15061;SDS011;7630;50.306;8.566;2022-11-21T03:40:16;14.13;;;5.30;;
15061;SDS011;7630;50.306;8.566;2022-11-21T03:44:17;9.43;;;4.37;;
15061;SDS011;7630;50.306;8.566;2022-11-21T03:48:18;17.47;;;5.33;;
15061;SDS011;7630;50.306;8.566;2022-11-21T03:52:20;14.73;;;6.47;;
15061;SDS011;7630;50.306;8.566;2022-11-21T03:56:21;12.77;;;5.27;;
15061;SDS011;7630;50.306;8.566;2022-11-21T04:00:22;15.67;;;6.13;;
15061;SDS011;7630;50.306;8.566;2022-11-21T04:04:24;15.53;;;5.67;;
15061;SDS011;7630;50.306;8.566;2022-11-21T04:08:25;6.83;;;5.00;;
15061;SDS011;7630;50.306;8.566;2022-11-21T04:12:27;15.37;;;5.17;;
15061;SDS011;7630;50.306;8.566;2022-11-21T04:16:28;14.33;;;5.27;;
15061;SDS011;7630;50.306;8.566;2022-11-21T04:20:29;18.90;;;6.47;;
15061;SDS011;7630;50.306;8.566;2022-11-21T04:24:30;8.47;;;4.73;;
15061;SDS011;7630;50.306;8.566;2022-11-21T04:28:31;22.23;;;5.80;;
15061;SDS011;7630;50.306;8.566;2022-11-21T04:32:32;13.73;;;4.83;;
15061;SDS011;7630;50.306;8.566;2022-11-21T04:36:33;14.33;;;5.67;;
15061;SDS011;7630;50.306;8.566;2022-11-21T04:40:35;9.43;;;5.13;;
15061;SDS011;7630;50.306;8.566;2022-11-21T04:44:36;18.10;;;4.87;;
15061;SDS011;7630;50.306;8.566;2022-11-21T04:48:38;11.83;;;5.47;;
15061;SDS011;7630;50.306;8.566;2022-11-21T04:52:40;10.20;;;6.03;;
15061;SDS011;7630;50.306;8.566;2022-11-21T04:56:42;10.60;;;4.70;;
15061;SDS011;7630;50.306;8.566;2022-11-21T05:00:43;11.03;;;6.33;;
15061;SDS011;7630;50.306;8.566;2022-11-21T05:04:44;13.13;;;5.50;;
15061;SDS011;7630;50.306;8.566;2022-11-21T05:08:45;12.30;;;5.83;;
15061;SDS011;7630;50.306;8.566;2022-11-21T05:12:54;11.70;;;6.40;;
15061;SDS011;7630;50.306;8.566;2022-11-21T05:17:13;13.07;;;6.47;;
15061;SDS011;7630;50.306;8.566;2022-11-21T05:21:14;14.70;;;6.73;;
15061;SDS011;7630;50.306;8.566;2022-11-21T05:25:15;14.93;;;7.05;;
15061;SDS011;7630;50.306;8.566;2022-11-21T05:29:16;18.77;;;7.00;;
15061;SDS011;7630;50.306;8.566;2022-11-21T05:33:17;10.47;;;5.57;;
15061;SDS011;7630;50.306;8.566;2022-11-21T05:37:18;9.13;;;6.22;;
15061;SDS011;7630;50.306;8.566;2022-11-21T05:41:22;7.00;;;5.03;;
15061;SDS011;7630;50.306;8.566;2022-11-21T05:45:23;7.13;;;4.17;;
15061;SDS011;7630;50.306;8.566;2022-11-21T05:49:24;8.47;;;4.27;;
15061;SDS011;7630;50.306;8.566;2022-11-21T05:53:26;14.20;;;5.75;;
15061;SDS011;7630;50.306;8.566;2022-11-21T05:57:27;9.80;;;5.77;;
15061;SDS011;7630;50.306;8.566;2022-11-21T06:01:28;9.43;;;5.40;;
15061;SDS011;7630;50.306;8.566;2022-11-21T06:05:47;13.93;;;7.27;;
15061;SDS011;7630;50.306;8.566;2022-11-21T06:09:48;9.10;;;5.60;;
15061;SDS011;7630;50.306;8.566;2022-11-21T06:13:50;7.30;;;5.50;;
15061;SDS011;7630;50.306;8.566;2022-11-21T06:17:52;13.87;;;6.40;;
15061;SDS011;7630;50.306;8.566;2022-11-21T06:21:53;10.25;;;6.65;;
15061;SDS011;7630;50.306;8.566;2022-11-21T06:25:57;10.53;;;6.13;;
15061;SDS011;7630;50.306;8.566;2022-11-21T06:29:59;14.37;;;5.73;;
15061;SDS011;7630;50.306;8.566;2022-11-21T06:34:00;8.33;;;6.10;;
15061;SDS011;7630;50.306;8.566;2022-11-21T06:38:02;8.40;;;5.27;;
15061;SDS011;7630;50.306;8.566;2022-11-21T06:42:03;15.07;;;6.67;;
15061;SDS011;7630;50.306;8.566;2022-11-21T06:46:04;12.33;;;6.43;;
15061;SDS011;7630;50.306;8.566;2022-11-21T06:50:05;20.37;;;7.20;;
15061;SDS011;7630;50.306;8.566;2022-11-21T06:54:07;8.87;;;5.97;;
15061;SDS011;7630;50.306;8.566;2022-11-21T06:58:10;7.70;;;5.93;;
15061;SDS011;7630;50.306;8.566;2022-11-21T07:02:12;14.63;;;6.33;;
15061;SDS011;7630;50.306;8.566;2022-11-21T07:06:13;15.63;;;6.70;;
15061;SDS011;7630;50.306;8.566;2022-11-21T07:10:14;11.63;;;5.80;;
15061;SDS011;7630;50.306;8.566;2022-11-21T07:14:16;12.73;;;6.30;;
15061;SDS011;7630;50.306;8.566;2022-11-21T07:18:18;9.73;;;6.13;;
15061;SDS011;7630;50.306;8.566;2022-11-21T07:22:20;7.57;;;4.80;;
15061;SDS011;7630;50.306;8.566;2022-11-21T07:26:21;11.27;;;7.23;;
15061;SDS011;7630;50.306;8.566;2022-11-21T07:30:22;7.33;;;4.37;;
15061;SDS011;7630;50.306;8.566;2022-11-21T07:34:23;7.43;;;4.83;;
15061;SDS011;7630;50.306;8.566;2022-11-21T07:38:24;6.10;;;4.17;;
15061;SDS011;7630;50.306;8.566;2022-11-21T07:42:26;8.10;;;4.03;;
15061;SDS011;7630;50.306;8.566;2022-11-21T07:46:27;5.97;;;3.50;;
15061;SDS011;7630;50.306;8.566;2022-11-21T07:50:28;4.87;;;3.60;;
15061;SDS011;7630;50.306;8.566;2022-11-21T07:54:30;11.07;;;7.80;;
15061;SDS011;7630;50.306;8.566;2022-11-21T07:58:31;6.27;;;3.70;;
15061;SDS011;7630;50.306;8.566;2022-11-21T08:02:32;6.67;;;3.93;;
15061;SDS011;7630;50.306;8.566;2022-11-21T08:06:33;7.63;;;3.93;;
15061;SDS011;7630;50.306;8.566;2022-11-21T08:10:41;5.93;;;3.73;;
15061;SDS011;7630;50.306;8.566;2022-11-21T08:14:44;6.57;;;4.43;;
15061;SDS011;7630;50.306;8.566;2022-11-21T08:18:45;7.27;;;3.83;;
15061;SDS011;7630;50.306;8.566;2022-11-21T08:22:46;4.93;;;3.93;;
15061;SDS011;7630;50.306;8.566;2022-11-21T08:26:47;5.07;;;3.50;;
15061;SDS011;7630;50.306;8.566;2022-11-21T08:30:49;6.17;;;3.90;;
15061;SDS011;7630;50.306;8.566;2022-11-21T08:34:50;9.47;;;5.07;;
15061;SDS011;7630;50.306;8.566;2022-11-21T08:38:51;3.53;;;3.00;;
15061;SDS011;7630;50.306;8.566;2022-11-21T08:42:56;5.03;;;3.20;;
15061;SDS011;7630;50.306;8.566;2022-11-21T08:47:07;10.23;;;4.00;;
15061;SDS011;7630;50.306;8.566;2022-11-21T08:51:09;7.57;;;6.53;;
15061;SDS011;7630;50.306;8.566;2022-11-21T08:55:10;6.37;;;4.00;;
15061;SDS011;7630;50.306;8.566;2022-11-21T08:59:11;5.20;;;3.50;;
15061;SDS011;7630;50.306;8.566;2022-11-21T09:03:12;7.83;;;4.27;;
15061;SDS011;7630;50.306;8.566;2022-11-21T09:07:15;5.50;;;3.37;;
15061;SDS011;7630;50.306;8.566;2022-11-21T09:11:17;3.53;;;3.20;;
15061;SDS011;7630;50.306;8.566;2022-11-21T09:15:18;9.13;;;3.77;;
15061;SDS011;7630;50.306;8.566;2022-11-21T09:19:41;6.50;;;3.90;;
15061;SDS011;7630;50.306;8.566;2022-11-21T09:23:42;3.10;;;2.90;;
15061;SDS011;7630;50.306;8.566;2022-11-21T09:27:43;3.60;;;2.97;;
15061;SDS011;7630;50.306;8.566;2022-11-21T09:31:44;4.80;;;4.03;;
15061;SDS011;7630;50.306;8.566;2022-11-21T09:35:46;6.73;;;3.20;;
15061;SDS011;7630;50.306;8.566;2022-11-21T09:39:48;3.87;;;2.63;;
15061;SDS011;7630;50.306;8.566;2022-11-21T09:43:56;3.77;;;2.63;;
15061;SDS011;7630;50.306;8.566;2022-11-21T09:47:57;1.70;;;1.60;;
15061;SDS011;7630;50.306;8.566;2022-11-21T09:51:58;8.50;;;2.70;;
15061;SDS011;7630;50.306;8.566;2022-11-21T09:56:04;2.00;;;1.90;;
15061;SDS011;7630;50.306;8.566;2022-11-21T10:00:13;1.97;;;1.87;;
15061;SDS011;7630;50.306;8.566;2022-11-21T10:04:16;5.27;;;2.03;;
15061;SDS011;7630;50.306;8.566;2022-11-21T10:08:24;2.17;;;2.07;;
15061;SDS011;7630;50.306;8.566;2022-11-21T10:16:57;2.53;;;2.33;;
15061;SDS011;7630;50.306;8.566;2022-11-21T10:25:28;4.37;;;2.30;;
15061;SDS011;7630;50.306;8.566;2022-11-21T10:29:49;3.77;;;2.50;;
15061;SDS011;7630;50.306;8.566;2022-11-21T10:33:53;6.40;;;2.37;;
15061;SDS011;7630;50.306;8.566;2022-11-21T10:38:00;4.30;;;2.77;;
15061;SDS011;7630;50.306;8.566;2022-11-21T10:42:15;5.17;;;4.50;;
15061;SDS011;7630;50.306;8.566;2022-11-21T10:46:21;3.97;;;2.13;;
15061;SDS011;7630;50.306;8.566;2022-11-21T10:55:04;2.53;;;2.23;;
15061;SDS011;7630;50.306;8.566;2022-11-21T10:59:11;2.60;;;1.83;;
15061;SDS011;7630;50.306;8.566;2022-11-21T11:03:15;3.23;;;2.10;;
15061;SDS011;7630;50.306;8.566;2022-11-21T11:07:25;2.43;;;1.60;;
15061;SDS011;7630;50.306;8.566;2022-11-21T11:11:29;2.50;;;1.90;;
15061;SDS011;7630;50.306;8.566;2022-11-21T11:15:31;3.03;;;2.10;;
15061;SDS011;7630;50.306;8.566;2022-11-21T11:19:32;1.63;;;1.53;;
15061;SDS011;7630;50.306;8.566;2022-11-21T11:23:35;2.17;;;1.93;;
15061;SDS011;7630;50.306;8.566;2022-11-21T11:27:37;1.80;;;1.70;;
15061;SDS011;7630;50.306;8.566;2022-11-21T11:31:39;2.23;;;1.93;;
15061;SDS011;7630;50.306;8.566;2022-11-21T11:35:43;4.57;;;2.33;;
15061;SDS011;7630;50.306;8.566;2022-11-21T11:48:24;4.57;;;2.17;;
15061;SDS011;7630;50.306;8.566;2022-11-21T11:52:30;3.20;;;1.80;;
15061;SDS011;7630;50.306;8.566;2022-11-21T11:56:35;2.20;;;1.80;;
15061;SDS011;7630;50.306;8.566;2022-11-21T12:00:45;2.17;;;1.97;;
15061;SDS011;7630;50.306;8.566;2022-11-21T12:05:06;2.23;;;1.80;;
15061;SDS011;7630;50.306;8.566;2022-11-21T12:09:19;2.00;;;1.80;;
15061;SDS011;7630;50.306;8.566;2022-11-21T12:13:28;3.47;;;2.00;;
15061;SDS011;7630;50.306;8.566;2022-11-21T12:17:36;4.20;;;3.80;;
15061;SDS011;7630;50.306;8.566;2022-11-21T12:21:45;4.40;;;3.07;;
15061;SDS011;7630;50.306;8.566;2022-11-21T12:25:52;4.03;;;1.83;;
15061;SDS011;7630;50.306;8.566;2022-11-21T12:30:24;6.10;;;3.00;;
15061;SDS011;7630;50.306;8.566;2022-11-21T12:38:59;4.77;;;3.60;;
15061;SDS011;7630;50.306;8.566;2022-11-21T12:47:37;4.70;;;4.00;;
15061;SDS011;7630;50.306;8.566;2022-11-21T12:56:18;9.20;;;4.40;;
15061;SDS011;7630;50.306;8.566;2022-11-21T13:04:51;5.50;;;3.70;;
15061;SDS011;7630;50.306;8.566;2022-11-21T13:08:56;6.67;;;3.27;;
15061;SDS011;7630;50.306;8.566;2022-11-21T13:13:06;3.83;;;3.43;;
15061;SDS011;7630;50.306;8.566;2022-11-21T13:25:44;6.67;;;3.03;;
15061;SDS011;7630;50.306;8.566;2022-11-21T13:30:22;7.23;;;2.87;;
15061;SDS011;7630;50.306;8.566;2022-11-21T13:34:34;5.53;;;3.17;;
15061;SDS011;7630;50.306;8.566;2022-11-21T13:47:44;2.17;;;1.97;;
15061;SDS011;7630;50.306;8.566;2022-11-21T13:51:46;2.93;;;2.03;;
15061;SDS011;7630;50.306;8.566;2022-11-21T13:55:57;1.80;;;1.70;;
15061;SDS011;7630;50.306;8.566;2022-11-21T14:08:21;3.00;;;2.47;;
15061;SDS011;7630;50.306;8.566;2022-11-21T14:16:42;3.00;;;1.87;;
15061;SDS011;7630;50.306;8.566;2022-11-21T14:20:51;2.73;;;1.90;;
15061;SDS011;7630;50.306;8.566;2022-11-21T14:24:57;6.33;;;3.03;;
15061;SDS011;7630;50.306;8.566;2022-11-21T14:37:33;6.90;;;2.77;;
15061;SDS011;7630;50.306;8.566;2022-11-21T14:41:37;6.93;;;2.43;;
15061;SDS011;7630;50.306;8.566;2022-11-21T14:45:39;4.33;;;2.33;;
15061;SDS011;7630;50.306;8.566;2022-11-21T14:49:47;4.00;;;2.10;;
15061;SDS011;7630;50.306;8.566;2022-11-21T14:53:52;7.10;;;2.80;;
15061;SDS011;7630;50.306;8.566;2022-11-21T14:57:54;5.73;;;2.60;;
15061;SDS011;7630;50.306;8.566;2022-11-21T15:01:59;7.80;;;2.83;;
15061;SDS011;7630;50.306;8.566;2022-11-21T15:06:08;6.77;;;3.10;;
15061;SDS011;7630;50.306;8.566;2022-11-21T15:10:13;5.30;;;3.10;;
15061;SDS011;7630;50.306;8.566;2022-11-21T15:18:32;4.63;;;2.90;;
15061;SDS011;7630;50.306;8.566;2022-11-21T15:22:37;4.47;;;2.77;;
15061;SDS011;7630;50.306;8.566;2022-11-21T15:26:40;5.20;;;3.00;;
15061;SDS011;7630;50.306;8.566;2022-11-21T15:30:42;4.27;;;3.60;;
15061;SDS011;7630;50.306;8.566;2022-11-21T15:34:45;7.63;;;5.27;;
15061;SDS011;7630;50.306;8.566;2022-11-21T15:38:48;7.47;;;5.13;;
15061;SDS011;7630;50.306;8.566;2022-11-21T15:42:56;5.97;;;5.37;;
15061;SDS011;7630;50.306;8.566;2022-11-21T15:46:58;12.70;;;6.00;;
15061;SDS011;7630;50.306;8.566;2022-11-21T15:50:59;8.63;;;4.87;;
15061;SDS011;7630;50.306;8.566;2022-11-21T15:55:00;10.72;;;6.65;;
15061;SDS011;7630;50.306;8.566;2022-11-21T15:59:01;10.77;;;7.40;;
15061;SDS011;7630;50.306;8.566;2022-11-21T16:03:02;11.77;;;8.03;;
15061;SDS011;7630;50.306;8.566;2022-11-21T16:07:03;23.37;;;13.33;;
15061;SDS011;7630;50.306;8.566;2022-11-21T16:11:05;17.30;;;10.90;;
15061;SDS011;7630;50.306;8.566;2022-11-21T16:15:06;16.50;;;7.00;;
15061;SDS011;7630;50.306;8.566;2022-11-21T16:19:08;7.20;;;5.35;;
15061;SDS011;7630;50.306;8.566;2022-11-21T16:23:11;10.10;;;6.53;;
15061;SDS011;7630;50.306;8.566;2022-11-21T16:27:12;6.93;;;4.87;;
15061;SDS011;7630;50.306;8.566;2022-11-21T16:31:17;8.20;;;4.73;;
15061;SDS011;7630;50.306;8.566;2022-11-21T16:35:20;9.37;;;6.10;;
15061;SDS011;7630;50.306;8.566;2022-11-21T16:39:22;8.43;;;5.80;;
15061;SDS011;7630;50.306;8.566;2022-11-21T16:43:23;16.63;;;9.97;;
15061;SDS011;7630;50.306;8.566;2022-11-21T16:51:48;9.77;;;7.27;;
15061;SDS011;7630;50.306;8.566;2022-11-21T16:55:58;7.73;;;6.93;;
15061;SDS011;7630;50.306;8.566;2022-11-21T16:59:54;7.17;;;6.47;;
15061;SDS011;7630;50.306;8.566;2022-11-21T17:03:57;7.80;;;5.80;;
15061;SDS011;7630;50.306;8.566;2022-11-21T17:07:58;7.97;;;5.27;;
15061;SDS011;7630;50.306;8.566;2022-11-21T17:11:59;5.97;;;5.33;;
15061;SDS011;7630;50.306;8.566;2022-11-21T17:16:04;10.20;;;5.77;;
15061;SDS011;7630;50.306;8.566;2022-11-21T17:20:07;13.93;;;10.03;;
15061;SDS011;7630;50.306;8.566;2022-11-21T17:24:11;17.17;;;10.23;;
15061;SDS011;7630;50.306;8.566;2022-11-21T17:28:13;13.33;;;9.43;;
15061;SDS011;7630;50.306;8.566;2022-11-21T17:32:14;8.57;;;7.53;;
15061;SDS011;7630;50.306;8.566;2022-11-21T17:36:17;7.87;;;6.77;;
15061;SDS011;7630;50.306;8.566;2022-11-21T17:40:20;7.37;;;5.73;;
15061;SDS011;7630;50.306;8.566;2022-11-21T17:44:21;8.47;;;6.00;;
15061;SDS011;7630;50.306;8.566;2022-11-21T17:48:22;10.10;;;6.17;;
15061;SDS011;7630;50.306;8.566;2022-11-21T17:52:23;8.00;;;7.07;;
15061;SDS011;7630;50.306;8.566;2022-11-21T17:56:25;7.40;;;6.13;;
15061;SDS011;7630;50.306;8.566;2022-11-21T18:00:30;14.70;;;7.47;;
15061;SDS011;7630;50.306;8.566;2022-11-21T18:04:31;9.43;;;8.35;;
15061;SDS011;7630;50.306;8.566;2022-11-21T18:08:34;9.03;;;8.10;;
15061;SDS011;7630;50.306;8.566;2022-11-21T18:12:37;12.70;;;8.10;;
15061;SDS011;7630;50.306;8.566;2022-11-21T18:16:39;14.27;;;8.60;;
15061;SDS011;7630;50.306;8.566;2022-11-21T18:20:42;8.17;;;7.47;;
15061;SDS011;7630;50.306;8.566;2022-11-21T18:24:44;8.98;;;7.95;;
15061;SDS011;7630;50.306;8.566;2022-11-21T18:28:46;10.87;;;7.27;;
15061;SDS011;7630;50.306;8.566;2022-11-21T18:32:50;8.57;;;7.93;;
15061;SDS011;7630;50.306;8.566;2022-11-21T18:36:51;11.87;;;6.70;;
15061;SDS011;7630;50.306;8.566;2022-11-21T18:40:54;8.77;;;6.80;;
15061;SDS011;7630;50.306;8.566;2022-11-21T18:44:56;10.70;;;8.20;;
15061;SDS011;7630;50.306;8.566;2022-11-21T18:48:57;8.97;;;6.30;;
15061;SDS011;7630;50.306;8.566;2022-11-21T18:53:00;7.97;;;6.60;;
15061;SDS011;7630;50.306;8.566;2022-11-21T18:57:02;8.30;;;7.30;;
15061;SDS011;7630;50.306;8.566;2022-11-21T19:01:09;16.10;;;6.60;;
15061;SDS011;7630;50.306;8.566;2022-11-21T19:05:08;10.70;;;8.13;;
15061;SDS011;7630;50.306;8.566;2022-11-21T19:09:09;8.98;;;8.05;;
15061;SDS011;7630;50.306;8.566;2022-11-21T19:13:11;13.97;;;9.67;;
15061;SDS011;7630;50.306;8.566;2022-11-21T19:17:12;11.27;;;9.03;;
15061;SDS011;7630;50.306;8.566;2022-11-21T19:21:13;8.70;;;7.60;;
15061;SDS011;7630;50.306;8.566;2022-11-21T19:25:15;9.83;;;6.80;;
15061;SDS011;7630;50.306;8.566;2022-11-21T19:29:16;13.40;;;9.40;;
15061;SDS011;7630;50.306;8.566;2022-11-21T19:33:18;11.17;;;7.73;;
15061;SDS011;7630;50.306;8.566;2022-11-21T19:37:19;12.57;;;7.20;;
15061;SDS011;7630;50.306;8.566;2022-11-21T19:41:21;17.97;;;10.00;;
15061;SDS011;7630;50.306;8.566;2022-11-21T19:45:25;13.17;;;8.93;;
15061;SDS011;7630;50.306;8.566;2022-11-21T19:49:26;11.87;;;9.30;;
15061;SDS011;7630;50.306;8.566;2022-11-21T19:53:32;16.80;;;9.90;;
15061;SDS011;7630;50.306;8.566;2022-11-21T19:57:35;14.43;;;10.37;;
15061;SDS011;7630;50.306;8.566;2022-11-21T20:01:37;18.70;;;9.37;;
15061;SDS011;7630;50.306;8.566;2022-11-21T20:05:38;16.43;;;8.60;;
15061;SDS011;7630;50.306;8.566;2022-11-21T20:09:40;10.03;;;7.40;;
15061;SDS011;7630;50.306;8.566;2022-11-21T20:13:42;10.87;;;8.10;;
15061;SDS011;7630;50.306;8.566;2022-11-21T20:17:48;11.00;;;8.40;;
15061;SDS011;7630;50.306;8.566;2022-11-21T20:21:50;11.57;;;7.90;;
15061;SDS011;7630;50.306;8.566;2022-11-21T20:25:52;15.93;;;9.93;;
15061;SDS011;7630;50.306;8.566;2022-11-21T20:29:53;10.63;;;7.73;;
15061;SDS011;7630;50.306;8.566;2022-11-21T20:33:55;13.30;;;7.73;;
15061;SDS011;7630;50.306;8.566;2022-11-21T20:37:57;12.93;;;7.77;;
15061;SDS011;7630;50.306;8.566;2022-11-21T20:41:58;15.77;;;8.20;;
15061;SDS011;7630;50.306;8.566;2022-11-21T20:46:00;19.10;;;7.57;;
15061;SDS011;7630;50.306;8.566;2022-11-21T20:50:05;14.90;;;7.07;;
15061;SDS011;7630;50.306;8.566;2022-11-21T20:54:06;12.03;;;6.77;;
15061;SDS011;7630;50.306;8.566;2022-11-21T20:58:07;7.63;;;6.80;;
15061;SDS011;7630;50.306;8.566;2022-11-21T21:02:10;8.03;;;6.87;;
15061;SDS011;7630;50.306;8.566;2022-11-21T21:06:13;8.93;;;5.70;;
15061;SDS011;7630;50.306;8.566;2022-11-21T21:10:16;8.73;;;7.93;;
15061;SDS011;7630;50.306;8.566;2022-11-21T21:14:22;10.40;;;7.40;;
15061;SDS011;7630;50.306;8.566;2022-11-21T21:18:23;11.80;;;7.13;;
15061;SDS011;7630;50.306;8.566;2022-11-21T21:22:24;14.97;;;7.03;;
15061;SDS011;7630;50.306;8.566;2022-11-21T21:26:38;11.73;;;7.20;;
15061;SDS011;7630;50.306;8.566;2022-11-21T21:30:39;9.43;;;7.57;;
15061;SDS011;7630;50.306;8.566;2022-11-21T21:34:40;11.70;;;8.17;;
15061;SDS011;7630;50.306;8.566;2022-11-21T21:38:41;13.77;;;8.13;;
15061;SDS011;7630;50.306;8.566;2022-11-21T21:42:43;12.43;;;8.77;;
15061;SDS011;7630;50.306;8.566;2022-11-21T21:46:44;16.43;;;8.87;;
15061;SDS011;7630;50.306;8.566;2022-11-21T21:50:45;14.00;;;7.63;;
15061;SDS011;7630;50.306;8.566;2022-11-21T21:54:46;14.33;;;8.10;;
15061;SDS011;7630;50.306;8.566;2022-11-21T21:58:48;11.40;;;9.83;;
15061;SDS011;7630;50.306;8.566;2022-11-21T22:02:50;16.00;;;9.43;;
15061;SDS011;7630;50.306;8.566;2022-11-21T22:06:51;12.47;;;8.83;;
15061;SDS011;7630;50.306;8.566;2022-11-21T22:10:58;22.77;;;10.17;;
15061;SDS011;7630;50.306;8.566;2022-11-21T22:15:04;14.63;;;11.17;;
15061;SDS011;7630;50.306;8.566;2022-11-21T22:19:06;14.20;;;9.27;;
15061;SDS011;7630;50.306;8.566;2022-11-21T22:23:08;13.93;;;11.07;;
15061;SDS011;7630;50.306;8.566;2022-11-21T22:27:09;15.40;;;13.13;;
15061;SDS011;7630;50.306;8.566;2022-11-21T22:31:11;28.30;;;14.93;;
15061;SDS011;7630;50.306;8.566;2022-11-21T22:35:13;20.40;;;16.03;;
15061;SDS011;7630;50.306;8.566;2022-11-21T22:39:15;18.83;;;16.83;;
15061;SDS011;7630;50.306;8.566;2022-11-21T22:43:17;23.40;;;16.90;;
15061;SDS011;7630;50.306;8.566;2022-11-21T22:47:18;23.80;;;16.83;;
15061;SDS011;7630;50.306;8.566;2022-11-21T22:51:22;17.90;;;16.17;;
15061;SDS011;7630;50.306;8.566;2022-11-21T22:55:25;21.70;;;15.50;;
15061;SDS011;7630;50.306;8.566;2022-11-21T22:59:26;17.30;;;15.27;;
15061;SDS011;7630;50.306;8.566;2022-11-21T23:03:30;16.73;;;14.77;;
15061;SDS011;7630;50.306;8.566;2022-11-21T23:07:33;17.67;;;15.77;;
15061;SDS011;7630;50.306;8.566;2022-11-21T23:11:34;18.97;;;17.27;;
15061;SDS011;7630;50.306;8.566;2022-11-21T23:15:37;16.00;;;14.27;;
15061;SDS011;7630;50.306;8.566;2022-11-21T23:19:38;17.23;;;14.87;;
15061;SDS011;7630;50.306;8.566;2022-11-21T23:23:39;16.37;;;13.23;;
15061;SDS011;7630;50.306;8.566;2022-11-21T23:27:40;14.13;;;12.77;;
15061;SDS011;7630;50.306;8.566;2022-11-21T23:31:41;19.70;;;13.83;;
15061;SDS011;7630;50.306;8.566;2022-11-21T23:35:43;15.13;;;12.97;;
15061;SDS011;7630;50.306;8.566;2022-11-21T23:39:45;14.87;;;13.37;;
15061;SDS011;7630;50.306;8.566;2022-11-21T23:43:46;13.33;;;12.07;;
15061;SDS011;7630;50.306;8.566;2022-11-21T23:47:47;14.00;;;11.90;;
15061;SDS011;7630;50.306;8.566;2022-11-21T23:51:48;12.13;;;10.93;;
15061;SDS011;7630;50.306;8.566;2022-11-21T23:55:49;13.43;;;12.03;;
15061;SDS011;7630;50.306;8.566;2022-11-21T23:59:50;17.13;;;13.43;;
